Royal Princess — ZCDV2 — position and weather

sailwx.info

Track history (hours):
 
Tides and Currents Weather Stations Pressure Air Temp Water Temp Dewpoint Dewpoint Depression Visibility Wind Speed Wind Dir Waves Ship Positions

Royal Princess

Last reported at 2018-Feb-16 14:00 UTC. Time now 2018-Feb-17 23:45 UTC.
Position S 00°14' W 051°19'.

Type: Passenger vessel. MMSI: 310530000.

Date/timePositionNaut miles runAvg speedWind from/ knotsBaromVisibWave heightAir tempDewpointWater temp
2018-Feb-16 14:00S 00°14' W 051°19'713.8
2018-Feb-16 13:30S 00°09' W 051°14'612.7
2018-Feb-16 13:00S 00°06' W 051°08'3 5.5
2018-Feb-16 12:25S 00°04' W 051°06'0 0.1
2018-Feb-16 11:55S 00°04' W 051°06'0 0.0
2018-Feb-16 11:25S 00°04' W 051°06'0 0.0
2018-Feb-16 10:58S 00°04' W 051°06'1 1.9
2018-Feb-16 10:31S 00°04' W 051°05'510.6
2018-Feb-16 10:00N 00°00' W 051°02'611.9
2018-Feb-16 09:30N 00°05' W 050°59'811.7
2018-Feb-16 08:50N 00°10' W 050°52'18113.1
2018-Feb-15 19:00N 02°48' W 049°24'   220 / 81010.310.8 27.5 28.0
2018-Feb-11 08:00N 14°00' W 061°42'42 7.2 090 / 281013.510.8 25.5 27.0
2018-Feb-11 02:12N 14°35' W 061°19'412.8
2018-Feb-11 01:55N 14°35' W 061°16'513.0
2018-Feb-11 01:30N 14°35' W 061°10'610.7
2018-Feb-11 00:59N 14°35' W 061°04'1 0.1
2018-Feb-10 12:22N 14°35' W 061°05'3 6.8
2018-Feb-10 11:57N 14°35' W 061°08'611.3
2018-Feb-10 11:25N 14°29' W 061°09'511.2
2018-Feb-10 11:00N 14°24' W 061°08'611.6
2018-Feb-10 10:30N 14°21' W 061°04'612.2
2018-Feb-10 10:00N 14°16' W 060°59'612.3
2018-Feb-10 09:30N 14°12' W 060°55'612.3
2018-Feb-10 09:00N 14°08' W 060°50'2813.9
2018-Feb-10 07:00N 13°48' W 060°30'48 1.0 070 / 201014.510.8 25.8 27.0
2018-Feb-08 07:00N 13°06' W 060°06'77 2.4 080 / 251012.310.8 25.7 27.0
2018-Feb-06 23:00N 13°48' W 061°12'   060 / 151016.010.8 24.7 29.0
Track history (hours):
 
Tides and Currents Weather Stations Pressure Air Temp Water Temp Dewpoint Dewpoint Depression Visibility Wind Speed Wind Dir Waves Ship Positions

Royal Princess

Last reported at 2018-Feb-16 14:00 UTC. Time now 2018-Feb-17 23:45 UTC.
Position S 00°14' W 051°19'.

Type: Passenger vessel. MMSI: 310530000.

Date/timePositionNaut miles runAvg speedWind from/ knotsBaromVisibWave heightAir tempDewpointWater temp
2018-Feb-16 14:00S 00°14' W 051°19'713.8
2018-Feb-16 13:30S 00°09' W 051°14'612.7
2018-Feb-16 13:00S 00°06' W 051°08'3 5.5
2018-Feb-16 12:25S 00°04' W 051°06'0 0.1
2018-Feb-16 11:55S 00°04' W 051°06'0 0.0
2018-Feb-16 11:25S 00°04' W 051°06'0 0.0
2018-Feb-16 10:58S 00°04' W 051°06'1 1.9
2018-Feb-16 10:31S 00°04' W 051°05'510.6
2018-Feb-16 10:00N 00°00' W 051°02'611.9
2018-Feb-16 09:30N 00°05' W 050°59'811.7
2018-Feb-16 08:50N 00°10' W 050°52'18113.1
2018-Feb-15 19:00N 02°48' W 049°24'   220 / 81010.310.8 27.5 28.0
2018-Feb-11 08:00N 14°00' W 061°42'42 7.2 090 / 281013.510.8 25.5 27.0
2018-Feb-11 02:12N 14°35' W 061°19'412.8
2018-Feb-11 01:55N 14°35' W 061°16'513.0
2018-Feb-11 01:30N 14°35' W 061°10'610.7
2018-Feb-11 00:59N 14°35' W 061°04'1 0.1
2018-Feb-10 12:22N 14°35' W 061°05'3 6.8
2018-Feb-10 11:57N 14°35' W 061°08'611.3
2018-Feb-10 11:25N 14°29' W 061°09'511.2
2018-Feb-10 11:00N 14°24' W 061°08'611.6
2018-Feb-10 10:30N 14°21' W 061°04'612.2
2018-Feb-10 10:00N 14°16' W 060°59'612.3
2018-Feb-10 09:30N 14°12' W 060°55'612.3
2018-Feb-10 09:00N 14°08' W 060°50'2813.9
2018-Feb-10 07:00N 13°48' W 060°30'48 1.0 070 / 201014.510.8 25.8 27.0
2018-Feb-08 07:00N 13°06' W 060°06'77 2.4 080 / 251012.310.8 25.7 27.0
2018-Feb-06 23:00N 13°48' W 061°12'   060 / 151016.010.8 24.7 29.0

Dump ship's entire track history